createdAt,value
2023-04-21T05:54:59.509Z,18.23
2023-04-21T06:00:01.407Z,18.60
2023-04-21T06:05:11.337Z,16.35
2023-04-21T06:21:10.236Z,16.83
2023-04-21T06:26:20.041Z,18.50
2023-04-21T06:31:22.829Z,17.15
2023-04-21T06:41:47.263Z,17.15
2023-04-21T06:46:48.724Z,17.23
2023-04-21T06:51:50.056Z,18.17
2023-04-21T06:56:52.667Z,17.10
2023-04-21T07:01:53.929Z,17.40
2023-04-21T07:06:55.799Z,15.27
2023-04-21T07:11:57.088Z,16.15
2023-04-21T07:16:58.738Z,16.63
2023-04-21T07:22:00.032Z,15.65
2023-04-21T07:27:01.634Z,14.60
2023-04-21T07:32:03.038Z,16.48
2023-04-21T07:37:04.519Z,15.23
2023-04-21T07:42:05.852Z,15.77
2023-04-21T07:47:08.669Z,15.77
2023-04-21T07:57:11.736Z,15.80
2023-04-21T08:02:13.111Z,15.38
2023-04-21T08:07:14.952Z,17.92
2023-04-21T08:12:16.432Z,17.80
2023-04-21T08:17:17.990Z,16.92
2023-04-21T08:22:19.392Z,17.38
2023-04-21T08:27:23.258Z,17.10
2023-04-21T08:32:25.297Z,16.98
2023-04-21T08:37:26.898Z,16.80
2023-04-21T08:42:28.289Z,15.85
2023-04-21T08:47:31.835Z,15.13
2023-04-21T08:52:33.472Z,14.98
2023-04-21T08:57:34.956Z,15.65
2023-04-21T09:02:59.661Z,13.90
2023-04-21T09:08:11.495Z,15.25
2023-04-21T09:13:12.961Z,14.68
2023-04-21T09:18:15.100Z,14.57
2023-04-21T09:23:17.029Z,14.60
2023-04-21T09:28:18.738Z,14.70
2023-04-21T09:33:29.531Z,15.48
2023-04-21T09:38:34.003Z,15.30
2023-04-21T09:43:35.837Z,14.45
2023-04-21T09:48:40.565Z,15.27
2023-04-21T09:53:42.874Z,14.75
2023-04-21T09:58:48.864Z,14.80
2023-04-21T10:03:54.053Z,15.23
2023-04-21T10:08:57.285Z,14.07
2023-04-21T10:13:58.851Z,14.90
2023-04-21T10:19:00.840Z,14.77
2023-04-21T10:24:16.073Z,15.35
2023-04-21T10:29:28.545Z,14.73
2023-04-21T10:34:33.522Z,11.80
2023-04-21T10:39:38.158Z,11.60
2023-04-21T10:44:51.026Z,11.27
2023-04-21T10:49:56.049Z,10.70
2023-04-21T10:55:03.583Z,11.10
2023-04-21T11:00:05.830Z,10.73
2023-04-21T11:10:48.862Z,11.13
2023-04-21T11:16:19.722Z,9.27
2023-04-21T11:21:21.606Z,7.78
2023-04-21T11:26:35.319Z,8.13
2023-04-21T11:31:40.513Z,8.13
2023-04-21T11:37:13.889Z,7.75
2023-04-21T11:53:37.685Z,7.20
2023-04-21T11:58:42.024Z,7.38
2023-04-21T12:03:54.279Z,7.05
2023-04-21T12:08:56.707Z,6.25
2023-04-21T12:13:58.389Z,7.13
2023-04-21T12:19:26.172Z,7.18
2023-04-21T12:24:27.701Z,7.28
2023-04-21T12:29:29.341Z,7.90
2023-04-21T12:34:30.787Z,9.15
2023-04-21T12:39:32.372Z,7.78
2023-04-21T12:44:33.929Z,9.30
2023-04-21T12:49:36.623Z,9.18
2023-04-21T12:54:40.755Z,7.93
2023-04-21T12:59:43.647Z,9.32
2023-04-21T13:04:46.988Z,8.38
2023-04-21T13:09:48.486Z,8.05
2023-04-21T13:14:49.923Z,8.38
2023-04-21T13:19:56.663Z,7.43
2023-04-21T13:24:58.249Z,6.90
2023-04-21T13:30:03.768Z,7.40
2023-04-21T13:35:05.694Z,6.47
2023-04-21T13:40:32.447Z,8.95
2023-04-21T13:45:34.252Z,7.70
2023-04-21T13:50:35.743Z,8.75
2023-04-21T13:55:37.505Z,8.15
2023-04-21T14:00:39.136Z,9.43
2023-04-21T14:05:45.355Z,6.78
2023-04-21T14:10:47.347Z,6.10
2023-04-21T14:15:49.000Z,6.03
2023-04-21T14:20:57.991Z,7.05
2023-04-21T14:25:59.388Z,6.28
2023-04-21T14:31:00.738Z,6.38
2023-04-21T14:36:02.125Z,5.80
2023-04-21T14:41:03.543Z,5.45
2023-04-21T14:46:05.058Z,5.85
2023-04-21T14:51:09.747Z,4.88
2023-04-21T14:56:13.373Z,4.53
2023-04-21T15:06:38.860Z,3.92
2023-04-21T15:11:40.556Z,4.50
2023-04-21T15:37:31.165Z,4.32
2023-04-21T15:42:32.632Z,4.10
2023-04-21T15:47:34.279Z,3.88
2023-04-21T15:52:42.351Z,3.45
2023-04-21T15:57:44.422Z,4.05
2023-04-21T16:02:46.350Z,3.65
2023-04-21T16:07:47.944Z,3.47
2023-04-21T16:12:49.460Z,3.75
2023-04-21T16:17:54.729Z,4.05
2023-04-21T16:22:56.393Z,4.18
2023-04-21T16:27:57.755Z,3.92
2023-04-21T16:32:59.296Z,4.30
2023-04-21T16:38:00.988Z,3.47
2023-04-21T16:43:05.319Z,3.13
2023-04-21T16:53:30.358Z,3.13
2023-04-21T16:58:37.959Z,3.38
2023-04-21T17:03:45.177Z,3.80
2023-04-21T17:08:47.899Z,3.67
2023-04-21T17:24:44.786Z,3.53
2023-04-21T17:30:28.044Z,3.42
2023-04-21T17:35:41.622Z,3.90
2023-04-21T17:40:54.642Z,3.60
2023-04-21T17:51:46.918Z,3.70
2023-04-21T18:02:28.802Z,5.00
2023-04-21T18:51:27.634Z,5.50
2023-04-21T18:56:29.773Z,4.82
2023-04-21T19:01:31.369Z,1.58
2023-04-21T19:06:32.712Z,1.42
2023-04-21T19:11:34.560Z,1.40
2023-04-21T19:16:36.074Z,1.30
2023-04-21T23:44:22.746Z,6.57
2023-04-21T23:49:24.613Z,6.95
2023-04-21T23:54:26.250Z,6.72
2023-04-21T23:59:27.580Z,6.82
